Coleman, Michigan
Current Conditions -  °F | °C
As of 1:35 PM on Thursday 27 Nov 2014 (Local Time) from KMOP Reporting Station
Overcast Overcast  
Wind Chill: 20°   Ceiling: 2900
Heat Index: 28°   Visibility: 10mi
Dew Point: 17°   Wind: 8mph
Humidity: 65%   Direction: 310°NW
Pressure: 30.18"   Gusts: NA
Location:  43.76°N, 84.59°W
Report Text: KMOP 271835Z AUTO 31007KT 280V340 10SM OVC029 M02/M08 A3018 RMK AO2 T10241081
Loading
Personal Weather Stations






























Interactive Weather Map New forecast layout! Learn more

10-Day Weather Forecast

Advertisements
Track Severe Weather on mobile